createdAt,value
2018-11-14T00:02:04.181Z,3.00
2018-11-14T00:04:35.327Z,3.02
2018-11-14T00:07:08.568Z,3.33
2018-11-14T00:09:57.485Z,2.25
2018-11-14T00:12:32.173Z,2.98
2018-11-14T00:15:03.077Z,3.08
2018-11-14T00:17:35.052Z,3.42
2018-11-14T00:20:07.443Z,2.83
2018-11-14T00:22:46.481Z,2.90
2018-11-14T00:25:18.324Z,3.90
2018-11-14T00:27:49.619Z,3.40
2018-11-14T00:30:22.844Z,2.60
2018-11-14T00:32:54.865Z,3.42
2018-11-14T00:35:29.101Z,2.25
2018-11-14T00:37:59.792Z,3.67
2018-11-14T00:40:30.785Z,4.10
2018-11-14T00:43:01.984Z,3.47
2018-11-14T00:45:32.373Z,2.85
2018-11-14T00:48:03.060Z,3.90
2018-11-14T00:50:35.577Z,2.55
2018-11-14T00:53:07.690Z,3.12
2018-11-14T00:55:37.983Z,2.15
2018-11-14T00:58:08.507Z,3.62
2018-11-14T01:00:39.269Z,3.10
2018-11-14T01:03:10.369Z,3.47
2018-11-14T01:05:41.118Z,4.10
2018-11-14T01:08:11.752Z,3.72
2018-11-14T01:10:42.695Z,3.15
2018-11-14T01:13:15.227Z,2.85
2018-11-14T01:15:47.371Z,3.67
2018-11-14T01:18:22.061Z,1.70
2018-11-14T01:20:52.771Z,3.67
2018-11-14T01:23:27.934Z,3.35
2018-11-14T01:28:41.657Z,2.25
2018-11-14T01:31:12.335Z,2.25
2018-11-14T01:33:43.121Z,4.75
2018-11-14T01:36:14.182Z,3.67
2018-11-14T01:38:44.901Z,2.33
2018-11-14T01:41:16.163Z,5.30
2018-11-14T01:43:47.199Z,4.30
2018-11-14T01:46:18.018Z,3.95
2018-11-14T01:48:48.653Z,4.28
2018-11-14T01:51:20.023Z,4.20
2018-11-14T01:53:50.665Z,3.17
2018-11-14T01:56:21.241Z,3.20
2018-11-14T01:58:51.762Z,3.95
2018-11-14T02:01:22.433Z,4.37
2018-11-14T02:03:53.899Z,2.33
2018-11-14T02:06:24.588Z,2.47
2018-11-14T02:08:55.195Z,2.67
2018-11-14T02:11:26.001Z,2.33
2018-11-14T02:13:57.262Z,3.02
2018-11-14T02:16:27.965Z,3.90
2018-11-14T02:18:58.678Z,3.27
2018-11-14T02:21:29.549Z,4.95
2018-11-14T02:24:00.362Z,4.33
2018-11-14T02:26:31.045Z,4.37
2018-11-14T02:29:01.876Z,2.02
2018-11-14T02:31:33.490Z,3.98
2018-11-14T02:34:04.249Z,3.75
2018-11-14T02:36:35.002Z,3.83
2018-11-14T02:39:08.604Z,3.52
2018-11-14T02:41:39.279Z,4.33
2018-11-14T02:44:10.161Z,3.30
2018-11-14T02:46:40.874Z,5.22
2018-11-14T02:49:11.527Z,4.90
2018-11-14T02:51:41.838Z,2.47
2018-11-14T02:54:12.814Z,2.95
2018-11-14T02:56:43.624Z,2.40
2018-11-14T02:59:14.344Z,2.00
2018-11-14T03:01:45.036Z,4.30
2018-11-14T03:04:15.786Z,3.10
2018-11-14T03:06:46.739Z,2.62
2018-11-14T03:09:18.283Z,3.90
2018-11-14T03:11:50.424Z,4.28
2018-11-14T03:14:22.461Z,2.33
2018-11-14T03:16:54.562Z,3.33
2018-11-14T03:19:25.914Z,3.05
2018-11-14T03:21:56.854Z,2.58
2018-11-14T03:24:28.294Z,2.90
2018-11-14T03:26:59.025Z,1.98
2018-11-14T03:29:29.795Z,2.75
2018-11-14T03:32:00.710Z,2.83
2018-11-14T03:34:31.825Z,2.40
2018-11-14T03:37:03.630Z,3.62
2018-11-14T03:39:34.595Z,2.05
2018-11-14T03:42:05.584Z,3.12
2018-11-14T03:44:36.241Z,3.83
2018-11-14T03:47:07.039Z,2.67
2018-11-14T03:49:38.442Z,2.20
2018-11-14T03:52:09.666Z,3.62
2018-11-14T03:54:40.208Z,3.02
2018-11-14T03:57:11.669Z,3.15
2018-11-14T03:59:43.825Z,1.62
2018-11-14T04:02:14.600Z,2.52
2018-11-14T04:04:48.256Z,1.12
2018-11-14T04:07:21.503Z,2.42
2018-11-14T04:09:52.741Z,1.92
2018-11-14T04:12:23.617Z,3.60
2018-11-14T04:14:54.272Z,3.70
2018-11-14T04:17:26.794Z,2.30
2018-11-14T04:19:58.360Z,2.45
2018-11-14T04:22:32.057Z,3.00
2018-11-14T04:25:03.095Z,2.80
2018-11-14T04:27:33.828Z,2.22
2018-11-14T04:30:05.314Z,1.75
2018-11-14T04:32:37.378Z,3.05
2018-11-14T04:35:10.314Z,3.45
2018-11-14T04:37:41.671Z,2.47
2018-11-14T04:40:15.053Z,3.10
2018-11-14T04:42:48.348Z,3.45
2018-11-14T04:45:20.724Z,1.90
2018-11-14T04:47:53.521Z,3.52
2018-11-14T04:50:26.856Z,3.92
2018-11-14T04:52:58.282Z,4.30
2018-11-14T04:55:30.987Z,3.15
2018-11-14T04:58:04.267Z,2.33
2018-11-14T05:00:35.253Z,2.60
2018-11-14T05:03:07.662Z,4.35
2018-11-14T05:05:39.335Z,3.80
2018-11-14T05:08:11.790Z,4.50
2018-11-14T05:10:46.237Z,2.90
2018-11-14T05:13:17.748Z,3.62
2018-11-14T05:15:51.073Z,5.97
2018-11-14T05:18:21.881Z,6.37
2018-11-14T05:20:56.228Z,5.78
2018-11-14T05:23:29.963Z,3.83
2018-11-14T05:26:04.194Z,5.75
2018-11-14T05:28:35.682Z,6.67
2018-11-14T05:31:14.916Z,4.58
2018-11-14T05:33:50.743Z,8.40
2018-11-14T05:36:21.840Z,8.98
2018-11-14T05:38:55.430Z,9.28
2018-11-14T05:41:28.558Z,7.78
2018-11-14T05:43:59.395Z,8.30
2018-11-14T05:46:37.093Z,9.13
2018-11-14T05:49:10.511Z,8.43
2018-11-14T05:51:41.493Z,5.80
2018-11-14T05:54:13.096Z,4.50
2018-11-14T05:56:44.037Z,7.08
2018-11-14T05:59:15.757Z,9.28
2018-11-14T06:01:46.524Z,9.63
2018-11-14T06:04:17.188Z,7.28
2018-11-14T06:06:47.904Z,11.88
2018-11-14T06:09:23.819Z,5.92
2018-11-14T06:11:54.679Z,9.88
2018-11-14T06:14:25.862Z,8.28
2018-11-14T06:16:58.416Z,11.10
2018-11-14T06:22:10.173Z,10.63
2018-11-14T06:24:41.279Z,9.00
2018-11-14T06:27:12.631Z,10.45
2018-11-14T06:29:44.292Z,10.43
2018-11-14T06:32:16.351Z,12.58
2018-11-14T06:34:48.223Z,12.85
2018-11-14T06:37:19.467Z,13.93
2018-11-14T06:39:52.306Z,10.88
2018-11-14T06:42:24.888Z,14.75
2018-11-14T06:44:56.737Z,16.25
2018-11-14T06:47:33.689Z,16.95
2018-11-14T06:50:06.413Z,12.55
2018-11-14T06:52:39.394Z,20.85
2018-11-14T06:55:18.394Z,21.85
2018-11-14T06:57:49.760Z,13.83
2018-11-14T07:00:26.225Z,17.37
2018-11-14T07:03:04.007Z,22.22
2018-11-14T07:05:36.922Z,20.70
2018-11-14T07:08:08.680Z,12.35
2018-11-14T07:10:40.476Z,20.97
2018-11-14T07:13:12.718Z,12.65
2018-11-14T07:15:44.166Z,9.43
2018-11-14T07:18:15.527Z,15.05
2018-11-14T07:20:46.718Z,13.13
2018-11-14T07:23:19.327Z,17.55
2018-11-14T07:25:50.038Z,11.10
2018-11-14T07:28:21.109Z,15.83
2018-11-14T07:30:52.968Z,23.92
2018-11-14T07:33:24.220Z,21.57
2018-11-14T07:35:55.894Z,15.48
2018-11-14T07:38:37.272Z,20.62
2018-11-14T07:41:10.666Z,16.20
2018-11-14T07:43:42.061Z,18.77
2018-11-14T07:46:14.776Z,16.60
2018-11-14T07:48:50.491Z,19.90
2018-11-14T07:51:24.975Z,23.67
2018-11-14T07:53:57.548Z,18.73
2018-11-14T07:59:04.695Z,11.90
2018-11-14T08:01:36.574Z,14.65
2018-11-14T08:04:08.671Z,15.83
2018-11-14T08:06:40.807Z,14.30
2018-11-14T08:09:13.686Z,18.82
2018-11-14T08:11:44.507Z,13.60
2018-11-14T08:14:15.357Z,12.65
2018-11-14T08:28:23.732Z,21.80
2018-11-14T08:31:05.081Z,13.55
2018-11-14T08:42:03.740Z,16.17
2018-11-14T08:47:27.022Z,9.00
2018-11-14T08:50:12.335Z,18.32
2018-11-14T08:53:00.839Z,12.55
2018-11-14T08:55:32.371Z,12.35
2018-11-14T08:58:06.427Z,12.73
2018-11-14T09:00:45.270Z,10.53
2018-11-14T09:03:16.758Z,15.70
2018-11-14T09:05:48.844Z,20.65
2018-11-14T09:08:21.648Z,15.43
2018-11-14T09:10:54.357Z,14.15
2018-11-14T09:13:25.467Z,11.48
2018-11-14T09:16:01.835Z,15.90
2018-11-14T09:18:33.209Z,13.13
2018-11-14T09:21:09.076Z,12.03
2018-11-14T09:23:54.576Z,18.02
2018-11-14T09:26:37.578Z,20.60
2018-11-14T09:29:18.744Z,9.00
2018-11-14T09:31:56.807Z,13.10
2018-11-14T09:34:29.950Z,18.77
2018-11-14T09:37:09.965Z,6.92
2018-11-14T09:39:42.949Z,16.65
2018-11-14T09:42:13.879Z,13.55
2018-11-14T09:44:48.458Z,16.52
2018-11-14T09:47:22.489Z,20.92
2018-11-14T09:49:55.247Z,19.80
2018-11-14T09:52:27.707Z,8.93
2018-11-14T09:55:05.056Z,18.77
2018-11-14T09:57:38.360Z,20.77
2018-11-14T10:00:16.995Z,12.80
2018-11-14T10:02:50.701Z,12.70
2018-11-14T10:05:24.591Z,13.35
2018-11-14T10:07:57.667Z,12.93
2018-11-14T10:10:34.212Z,22.20
2018-11-14T10:13:09.194Z,19.62
2018-11-14T10:15:40.600Z,19.50
2018-11-14T10:18:13.860Z,10.70
2018-11-14T10:20:45.710Z,15.43
2018-11-14T10:23:17.906Z,18.95
2018-11-14T10:25:52.532Z,17.77
2018-11-14T10:28:25.776Z,16.52
2018-11-14T10:30:57.402Z,17.37
2018-11-14T10:33:32.151Z,16.07
2018-11-14T10:36:05.959Z,21.97
2018-11-14T10:38:39.787Z,88.70
2018-11-14T10:41:11.598Z,17.42
2018-11-14T10:43:43.440Z,20.40
2018-11-14T10:46:14.742Z,18.75
2018-11-14T10:48:44.256Z,16.67
2018-11-14T10:51:14.436Z,18.55
2018-11-14T10:53:44.421Z,19.45
2018-11-14T10:56:15.522Z,14.60
2018-11-14T10:58:50.753Z,12.80
2018-11-14T11:04:11.117Z,9.73
2018-11-14T11:08:55.175Z,19.80
2018-11-14T11:11:29.468Z,23.12
2018-11-14T11:16:11.008Z,22.20
2018-11-14T11:18:55.366Z,22.48
2018-11-14T11:21:30.230Z,14.80
2018-11-14T11:24:01.868Z,22.98
2018-11-14T11:26:32.305Z,17.90
2018-11-14T11:31:49.542Z,16.40
2018-11-14T11:34:19.387Z,13.10
2018-11-14T11:36:51.476Z,15.13
2018-11-14T11:39:24.397Z,9.98
2018-11-14T11:42:00.316Z,18.23
2018-11-14T11:44:30.255Z,10.35
2018-11-14T11:47:01.538Z,25.85
2018-11-14T11:49:31.178Z,17.67
2018-11-14T11:52:06.563Z,15.35
2018-11-14T11:54:36.505Z,15.68
2018-11-14T11:57:20.993Z,16.67
2018-11-14T11:59:53.465Z,12.45
2018-11-14T12:02:24.875Z,19.25
2018-11-14T12:04:58.089Z,14.75
2018-11-14T12:07:29.628Z,23.87
2018-11-14T12:10:01.583Z,20.05
2018-11-14T12:12:31.639Z,21.50
2018-11-14T12:15:07.861Z,17.80
2018-11-14T12:17:38.330Z,9.98
2018-11-14T12:20:10.898Z,12.18
2018-11-14T12:22:44.215Z,17.35
2018-11-14T12:25:19.761Z,22.75
2018-11-14T12:27:50.631Z,19.37
2018-11-14T12:33:03.755Z,12.00
2018-11-14T12:35:36.528Z,20.43
2018-11-14T12:38:13.268Z,15.10
2018-11-14T12:43:33.962Z,23.52
2018-11-14T12:46:08.689Z,15.90
2018-11-14T12:48:43.466Z,19.65
2018-11-14T12:51:15.601Z,15.78
2018-11-14T12:53:46.126Z,15.05
2018-11-14T12:56:16.782Z,11.70
2018-11-14T12:58:46.385Z,16.37
2018-11-14T13:01:17.971Z,13.25
2018-11-14T13:03:48.193Z,16.00
2018-11-14T13:06:19.077Z,11.80
2018-11-14T13:08:51.503Z,21.00
2018-11-14T13:11:21.525Z,17.77
2018-11-14T13:13:52.221Z,22.58
2018-11-14T13:16:21.759Z,12.55
2018-11-14T13:18:51.740Z,22.75
2018-11-14T13:21:22.167Z,14.58
2018-11-14T13:23:52.388Z,18.32
2018-11-14T13:26:23.721Z,19.50
2018-11-14T13:28:53.465Z,9.13
2018-11-14T13:31:22.871Z,25.70
2018-11-14T13:33:55.694Z,22.65
2018-11-14T13:36:24.977Z,20.05
2018-11-14T13:38:54.397Z,20.25
2018-11-14T13:41:23.842Z,24.20
2018-11-14T13:43:53.210Z,23.00
2018-11-14T13:46:22.984Z,9.90
2018-11-14T13:48:52.519Z,10.40
2018-11-14T13:51:21.981Z,11.73
2018-11-14T13:53:51.632Z,23.42
2018-11-14T13:56:22.515Z,22.55
2018-11-14T13:58:52.214Z,14.70
2018-11-14T14:01:24.563Z,21.80
2018-11-14T14:03:53.882Z,15.93
2018-11-14T14:06:25.974Z,18.23
2018-11-14T14:09:04.124Z,12.23
2018-11-14T14:11:33.873Z,20.20
2018-11-14T14:14:09.637Z,15.43
2018-11-14T14:19:23.714Z,18.65
2018-11-14T14:21:59.057Z,23.87
2018-11-14T14:24:36.649Z,18.27
2018-11-14T14:27:12.426Z,21.82
2018-11-14T14:29:42.307Z,18.32
2018-11-14T14:32:13.752Z,21.57
2018-11-14T14:34:46.125Z,18.55
2018-11-14T14:37:16.854Z,19.90
2018-11-14T14:39:46.374Z,13.75
2018-11-14T14:42:22.136Z,17.62
2018-11-14T14:44:53.962Z,18.70
2018-11-14T14:47:26.055Z,21.20
2018-11-14T14:49:56.151Z,15.00
2018-11-14T14:55:04.977Z,20.25
2018-11-14T14:57:34.585Z,14.43
2018-11-14T15:00:05.905Z,12.73
2018-11-14T15:02:36.832Z,20.82
2018-11-14T15:05:10.252Z,15.53
2018-11-14T15:07:40.313Z,20.72
2018-11-14T15:10:13.225Z,11.90
2018-11-14T15:12:44.419Z,22.10
2018-11-14T15:15:18.112Z,21.45
2018-11-14T15:17:48.596Z,18.57
2018-11-14T15:20:21.029Z,19.65
2018-11-14T15:22:52.380Z,20.88
2018-11-14T15:25:23.751Z,18.87
2018-11-14T15:27:55.403Z,18.10
2018-11-14T15:33:15.001Z,23.20
2018-11-14T15:35:44.875Z,21.68
2018-11-14T15:38:14.614Z,20.43
2018-11-14T15:40:44.260Z,20.82
2018-11-14T15:43:15.641Z,22.07
2018-11-14T15:45:45.880Z,21.00
2018-11-14T15:48:18.066Z,15.45
2018-11-14T15:50:47.727Z,20.50
2018-11-14T15:53:17.575Z,20.82
2018-11-14T15:55:49.213Z,11.95
2018-11-14T15:58:19.554Z,21.95
2018-11-14T16:00:49.430Z,16.77
2018-11-14T16:03:19.887Z,24.60
2018-11-14T16:05:50.353Z,23.35
2018-11-14T16:08:21.053Z,22.70
2018-11-14T16:10:51.412Z,31.77
2018-11-14T16:13:27.805Z,24.05
2018-11-14T16:16:02.474Z,22.45
2018-11-14T16:18:32.906Z,25.30
2018-11-14T16:21:11.643Z,23.22
2018-11-14T16:23:42.232Z,22.77
2018-11-14T16:26:14.300Z,25.27
2018-11-14T16:28:45.107Z,25.15
2018-11-14T16:31:19.097Z,21.55
2018-11-14T16:33:50.082Z,24.00
2018-11-14T16:36:19.581Z,24.92
2018-11-14T16:38:50.111Z,24.25
2018-11-14T16:41:20.950Z,26.37
2018-11-14T16:43:52.752Z,24.30
2018-11-14T16:46:24.516Z,23.85
2018-11-14T16:48:57.608Z,24.07
2018-11-14T16:51:31.409Z,24.92
2018-11-14T16:54:03.060Z,25.32
2018-11-14T16:56:33.145Z,25.15
2018-11-14T16:59:03.033Z,25.75
2018-11-14T17:01:38.636Z,23.67
2018-11-14T17:04:09.751Z,25.25
2018-11-14T17:06:44.098Z,24.37
2018-11-14T17:12:27.109Z,25.40
2018-11-14T17:14:58.454Z,26.62
2018-11-14T17:17:31.250Z,24.27
2018-11-14T17:20:01.423Z,24.90
2018-11-14T17:22:31.452Z,24.15
2018-11-14T17:25:01.450Z,26.30
2018-11-14T17:27:31.663Z,26.35
2018-11-14T17:30:02.546Z,24.10
2018-11-14T17:32:38.217Z,25.23
2018-11-14T17:35:13.721Z,23.90
2018-11-14T17:37:46.160Z,23.80
2018-11-14T17:40:27.180Z,23.92
2018-11-14T17:42:59.825Z,24.43
2018-11-14T17:45:32.802Z,23.32
2018-11-14T17:48:03.848Z,23.98
2018-11-14T17:50:36.193Z,23.12
2018-11-14T17:53:10.232Z,24.57
2018-11-14T17:55:43.177Z,25.20
2018-11-14T17:58:23.686Z,22.30
2018-11-14T18:00:55.787Z,27.07
2018-11-14T18:03:39.378Z,24.10
2018-11-14T18:12:09.021Z,23.83
2018-11-14T18:29:20.120Z,22.02
2018-11-14T18:41:36.381Z,21.82
2018-11-14T18:53:07.071Z,23.57
2018-11-14T19:04:47.625Z,22.25
2018-11-14T19:13:39.810Z,20.90
2018-11-14T19:16:16.541Z,20.45
2018-11-14T19:47:17.766Z,17.15
2018-11-14T21:03:01.420Z,14.80
2018-11-14T21:05:41.997Z,15.78
2018-11-14T21:08:13.634Z,15.58
2018-11-14T21:10:48.275Z,16.12
2018-11-14T21:13:24.773Z,16.97
2018-11-14T21:33:11.192Z,13.22
2018-11-14T21:35:52.107Z,13.98
2018-11-14T21:38:26.438Z,15.63
2018-11-14T21:40:58.888Z,14.47
2018-11-14T21:43:36.712Z,16.07
2018-11-14T21:46:08.466Z,14.70
2018-11-14T21:48:45.654Z,13.55
2018-11-14T21:51:22.292Z,13.45
2018-11-14T21:53:57.787Z,13.10
2018-11-14T21:56:35.683Z,12.78
2018-11-14T21:59:18.659Z,12.82
2018-11-14T22:01:52.727Z,12.25
2018-11-14T22:04:35.578Z,13.20
2018-11-14T22:07:18.402Z,13.18
2018-11-14T22:09:53.378Z,13.25
2018-11-14T22:12:26.968Z,14.40
2018-11-14T22:15:06.935Z,12.23
2018-11-14T22:17:40.183Z,11.97
2018-11-14T22:20:19.889Z,15.35
2018-11-14T22:22:52.562Z,12.05
2018-11-14T22:25:26.917Z,22.17
2018-11-14T22:27:59.043Z,12.20
2018-11-14T22:30:38.262Z,12.15
2018-11-14T22:33:15.675Z,11.93
2018-11-14T22:35:47.727Z,12.25
2018-11-14T22:38:19.987Z,11.95
2018-11-14T22:40:53.333Z,11.93
2018-11-14T22:43:30.582Z,12.78
2018-11-14T22:46:08.372Z,11.65
2018-11-14T22:48:43.299Z,12.80
2018-11-14T22:51:24.471Z,13.08
2018-11-14T22:53:57.873Z,12.68
2018-11-14T22:56:32.049Z,12.40
2018-11-14T22:59:05.276Z,12.45
2018-11-14T23:01:40.233Z,12.68
2018-11-14T23:06:53.613Z,11.65
2018-11-14T23:09:26.547Z,12.07
2018-11-14T23:11:59.560Z,12.03
2018-11-14T23:14:33.053Z,12.00
2018-11-14T23:17:09.336Z,12.25
2018-11-14T23:19:55.001Z,11.60
2018-11-14T23:25:21.081Z,12.05
2018-11-14T23:30:30.964Z,12.98
2018-11-14T23:36:07.315Z,12.93
2018-11-14T23:38:39.137Z,12.93
2018-11-14T23:41:13.950Z,12.90
2018-11-14T23:43:46.649Z,12.98
2018-11-14T23:46:19.889Z,13.22
2018-11-14T23:49:27.546Z,12.00
2018-11-14T23:51:59.921Z,12.53
2018-11-14T23:54:32.525Z,13.78
2018-11-14T23:57:04.740Z,13.40
2018-11-14T23:59:38.702Z,11.60
